createdAt,value
2019-06-27T00:02:31.668Z,26.92
2019-06-27T00:05:02.595Z,26.97
2019-06-27T00:07:34.701Z,27.03
2019-06-27T00:10:04.627Z,26.49
2019-06-27T00:12:33.728Z,26.24
2019-06-27T00:15:04.586Z,26.24
2019-06-27T00:17:35.708Z,26.60
2019-06-27T00:20:04.957Z,26.94
2019-06-27T00:22:41.072Z,26.90
2019-06-27T00:25:07.671Z,27.07
2019-06-27T00:27:37.962Z,27.34
2019-06-27T00:30:08.630Z,27.12
2019-06-27T00:32:40.561Z,27.59
2019-06-27T00:35:11.326Z,27.81
2019-06-27T00:37:45.199Z,26.54
2019-06-27T00:40:18.402Z,27.44
2019-06-27T00:42:47.525Z,27.33
2019-06-27T00:45:21.397Z,27.56
2019-06-27T00:47:54.016Z,27.48
2019-06-27T00:50:23.287Z,27.44
2019-06-27T00:52:52.392Z,27.56
2019-06-27T00:55:21.542Z,27.63
2019-06-27T00:57:50.640Z,27.37
2019-06-27T01:00:21.355Z,27.59
2019-06-27T01:02:50.513Z,27.70
2019-06-27T01:05:19.657Z,27.79
2019-06-27T01:07:48.783Z,27.94
2019-06-27T01:10:18.801Z,27.88
2019-06-27T01:12:48.871Z,27.99
2019-06-27T01:15:18.171Z,27.91
2019-06-27T01:17:47.333Z,27.82
2019-06-27T01:20:18.229Z,27.82
2019-06-27T01:22:48.969Z,27.19
2019-06-27T01:25:19.101Z,27.12
2019-06-27T01:27:48.206Z,18.77
2019-06-27T01:30:20.092Z,26.98
2019-06-27T01:32:54.378Z,26.56
2019-06-27T01:35:23.518Z,26.90
2019-06-27T01:37:52.606Z,27.32
2019-06-27T01:40:21.779Z,27.31
2019-06-27T01:42:52.226Z,27.31
2019-06-27T01:45:36.991Z,27.03
2019-06-27T01:48:06.129Z,27.18
2019-06-27T01:50:37.045Z,27.18
2019-06-27T01:53:07.259Z,27.39
2019-06-27T01:55:39.022Z,27.37
2019-06-27T01:58:09.389Z,27.27
2019-06-27T02:00:40.163Z,26.75
2019-06-27T02:03:11.179Z,26.75
2019-06-27T02:05:42.081Z,26.94
2019-06-27T02:08:11.192Z,26.95
2019-06-27T02:10:41.694Z,26.95
2019-06-27T02:13:11.023Z,27.03
2019-06-27T02:15:43.296Z,27.35
2019-06-27T02:18:12.433Z,27.41
2019-06-27T02:20:41.544Z,27.20
2019-06-27T02:23:10.715Z,27.16
2019-06-27T02:25:39.900Z,27.24
2019-06-27T02:28:09.041Z,27.13
2019-06-27T02:30:50.695Z,27.19
2019-06-27T02:33:19.844Z,26.88
2019-06-27T02:35:50.326Z,26.88
2019-06-27T02:38:23.565Z,26.98
2019-06-27T02:40:58.738Z,26.98
2019-06-27T02:43:30.067Z,27.01
2019-06-27T02:45:59.249Z,27.01
2019-06-27T02:48:32.966Z,26.90
2019-06-27T02:51:02.195Z,26.90
2019-06-27T02:53:33.273Z,26.82
2019-06-27T02:56:02.380Z,26.81
2019-06-27T02:58:33.048Z,26.86
2019-06-27T03:01:02.438Z,26.88
2019-06-27T03:03:33.827Z,26.89
2019-06-27T03:06:04.866Z,26.88
2019-06-27T03:08:34.062Z,26.73
2019-06-27T03:11:07.106Z,26.73
2019-06-27T03:13:40.647Z,26.68
2019-06-27T03:16:10.285Z,26.80
2019-06-27T03:18:39.828Z,26.80
2019-06-27T03:21:08.986Z,26.78
2019-06-27T03:23:38.100Z,26.79
2019-06-27T03:26:07.232Z,26.62
2019-06-27T03:28:51.851Z,26.46
2019-06-27T03:31:09.303Z,26.40
2019-06-27T03:33:40.286Z,26.52
2019-06-27T03:36:09.428Z,26.52
2019-06-27T03:38:38.768Z,26.38
2019-06-27T03:41:08.159Z,26.19
2019-06-27T03:43:41.274Z,26.27
2019-06-27T03:46:10.762Z,26.37
2019-06-27T03:48:39.886Z,26.37
2019-06-27T03:51:12.480Z,26.59
2019-06-27T03:53:41.689Z,26.60
2019-06-27T03:56:13.181Z,26.54
2019-06-27T03:58:44.134Z,26.32
2019-06-27T04:01:14.450Z,26.30
2019-06-27T04:03:46.804Z,26.58
2019-06-27T04:06:16.000Z,26.43
2019-06-27T04:08:45.129Z,26.47
2019-06-27T04:11:17.114Z,26.40
2019-06-27T04:13:50.243Z,26.27
2019-06-27T04:16:21.332Z,25.99
2019-06-27T04:18:52.765Z,25.99
2019-06-27T04:21:25.348Z,25.91
2019-06-27T04:23:54.606Z,25.97
2019-06-27T04:26:25.008Z,26.03
2019-06-27T04:28:55.816Z,26.19
2019-06-27T04:31:26.842Z,26.38
2019-06-27T04:33:55.972Z,26.38
2019-06-27T04:36:29.096Z,26.39
2019-06-27T04:38:59.339Z,26.49
2019-06-27T04:41:30.124Z,26.69
2019-06-27T04:44:02.004Z,26.69
2019-06-27T04:46:31.343Z,26.88
2019-06-27T04:49:05.097Z,27.15
2019-06-27T04:51:34.572Z,27.11
2019-06-27T04:54:06.199Z,27.11
2019-06-27T04:56:38.006Z,27.31
2019-06-27T04:59:07.290Z,27.84
2019-06-27T05:01:39.149Z,27.85
2019-06-27T05:04:11.446Z,28.03
2019-06-27T05:06:40.623Z,28.18
2019-06-27T05:09:10.952Z,28.28
2019-06-27T05:11:40.538Z,28.40
2019-06-27T05:14:09.669Z,28.01
2019-06-27T05:16:38.762Z,20.67
2019-06-27T05:19:08.315Z,28.13
2019-06-27T05:21:45.787Z,28.10
2019-06-27T05:24:16.328Z,28.24
2019-06-27T05:26:45.432Z,28.22
2019-06-27T05:29:16.355Z,28.39
2019-06-27T05:31:52.801Z,28.39
2019-06-27T05:34:26.632Z,28.18
2019-06-27T05:36:58.670Z,28.43
2019-06-27T05:39:35.303Z,28.06
2019-06-27T05:42:04.836Z,27.95
2019-06-27T05:44:38.595Z,28.10
2019-06-27T05:47:10.796Z,28.06
2019-06-27T05:49:46.810Z,27.94
2019-06-27T05:52:16.349Z,27.99
2019-06-27T05:54:48.803Z,27.95
2019-06-27T05:57:19.184Z,28.01
2019-06-27T05:59:56.944Z,28.11
2019-06-27T06:02:27.305Z,28.19
2019-06-27T06:05:00.222Z,27.97
2019-06-27T06:07:31.045Z,28.18
2019-06-27T06:10:00.209Z,28.51
2019-06-27T06:12:29.313Z,28.64
2019-06-27T06:14:58.451Z,28.51
2019-06-27T06:17:29.957Z,28.46
2019-06-27T06:20:09.806Z,28.43
2019-06-27T06:22:45.680Z,28.03
2019-06-27T06:25:15.965Z,28.24
2019-06-27T06:27:47.972Z,27.89
2019-06-27T06:30:17.944Z,28.04
2019-06-27T06:32:47.049Z,28.19
2019-06-27T06:35:17.721Z,25.19
2019-06-27T06:37:46.916Z,28.38
2019-06-27T06:40:16.709Z,28.21
2019-06-27T06:42:48.791Z,28.34
2019-06-27T06:45:17.943Z,28.79
2019-06-27T06:47:47.965Z,28.70
2019-06-27T06:50:17.696Z,28.39
2019-06-27T06:52:47.058Z,28.30
2019-06-27T06:55:21.044Z,28.22
2019-06-27T06:57:51.739Z,28.39
2019-06-27T07:00:22.589Z,28.58
2019-06-27T07:02:53.873Z,28.61
2019-06-27T07:05:27.779Z,28.13
2019-06-27T07:07:59.178Z,28.19
2019-06-27T07:10:31.560Z,28.07
2019-06-27T07:13:05.428Z,27.75
2019-06-27T07:15:37.707Z,27.61
2019-06-27T07:18:07.600Z,28.09
2019-06-27T07:20:37.503Z,28.07
2019-06-27T07:23:11.783Z,28.20
2019-06-27T07:25:46.290Z,28.45
2019-06-27T07:28:15.440Z,28.55
2019-06-27T07:30:47.071Z,28.45
2019-06-27T07:33:16.564Z,28.67
2019-06-27T07:35:51.185Z,28.82
2019-06-27T07:38:21.564Z,28.52
2019-06-27T07:40:51.693Z,28.50
2019-06-27T07:43:20.810Z,28.14
2019-06-27T07:45:53.901Z,28.50
2019-06-27T07:48:23.177Z,28.47
2019-06-27T07:51:01.545Z,28.57
2019-06-27T07:53:30.806Z,28.23
2019-06-27T07:56:01.561Z,28.06
2019-06-27T07:58:30.758Z,27.88
2019-06-27T08:01:00.661Z,28.21
2019-06-27T08:03:29.858Z,28.33
2019-06-27T08:06:00.243Z,28.12
2019-06-27T08:08:33.670Z,27.97
2019-06-27T08:11:06.190Z,27.99
2019-06-27T08:13:36.450Z,28.17
2019-06-27T08:16:05.538Z,28.32
2019-06-27T08:18:34.721Z,28.51
2019-06-27T08:21:13.274Z,28.59
2019-06-27T08:23:44.340Z,28.58
2019-06-27T08:26:13.747Z,28.27
2019-06-27T08:28:45.858Z,28.26
2019-06-27T08:31:17.701Z,28.32
2019-06-27T08:33:47.165Z,28.51
2019-06-27T08:36:18.591Z,28.61
2019-06-27T08:38:48.055Z,28.88
2019-06-27T08:41:17.196Z,27.53
2019-06-27T08:43:49.029Z,28.86
2019-06-27T08:46:20.676Z,28.97
2019-06-27T08:48:55.329Z,29.15
2019-06-27T08:51:24.460Z,29.13
2019-06-27T08:53:56.670Z,29.25
2019-06-27T08:56:37.049Z,29.25
2019-06-27T08:59:11.239Z,29.37
2019-06-27T09:02:07.844Z,29.15
2019-06-27T09:04:27.558Z,29.06
2019-06-27T09:06:58.743Z,29.04
2019-06-27T09:09:31.876Z,29.07
2019-06-27T09:12:04.355Z,29.30
2019-06-27T09:14:33.542Z,29.41
2019-06-27T09:17:04.542Z,29.57
2019-06-27T09:19:36.588Z,29.34
2019-06-27T09:22:05.758Z,29.57
2019-06-27T09:24:38.787Z,29.37
2019-06-27T09:27:08.101Z,29.63
2019-06-27T09:29:37.367Z,29.51
2019-06-27T09:32:06.952Z,29.37
2019-06-27T09:34:36.097Z,29.44
2019-06-27T09:37:10.097Z,29.65
2019-06-27T09:39:43.165Z,30.14
2019-06-27T09:42:12.404Z,30.32
2019-06-27T09:44:42.353Z,29.93
2019-06-27T09:47:13.670Z,30.02
2019-06-27T09:49:45.305Z,29.89
2019-06-27T09:52:14.517Z,30.13
2019-06-27T09:54:43.777Z,29.95
2019-06-27T09:57:12.885Z,30.09
2019-06-27T09:59:43.176Z,30.31
2019-06-27T10:02:17.092Z,30.58
2019-06-27T10:04:46.215Z,30.36
2019-06-27T10:07:15.648Z,29.14
2019-06-27T10:09:53.899Z,30.67
2019-06-27T10:12:23.030Z,30.74
2019-06-27T10:14:52.505Z,30.60
2019-06-27T10:17:24.026Z,30.79
2019-06-27T10:19:54.800Z,31.10
2019-06-27T10:22:28.763Z,31.05
2019-06-27T10:24:58.645Z,30.85
2019-06-27T10:27:34.146Z,30.53
2019-06-27T10:30:04.698Z,30.71
2019-06-27T10:32:39.538Z,30.74
2019-06-27T10:35:10.012Z,31.01
2019-06-27T10:37:42.090Z,30.96
2019-06-27T10:40:18.241Z,31.42
2019-06-27T10:42:49.500Z,31.34
2019-06-27T10:45:25.309Z,31.38
2019-06-27T10:47:56.910Z,31.64
2019-06-27T10:50:29.156Z,31.37
2019-06-27T10:52:58.283Z,31.56
2019-06-27T10:55:28.647Z,31.53
2019-06-27T10:57:58.115Z,31.66
2019-06-27T11:00:28.513Z,31.83
2019-06-27T11:03:14.382Z,31.30
2019-06-27T11:05:32.823Z,31.61
2019-06-27T11:08:05.103Z,31.93
2019-06-27T11:10:37.370Z,31.88
2019-06-27T11:13:06.522Z,31.71
2019-06-27T11:15:35.614Z,31.89
2019-06-27T11:18:05.066Z,32.03
2019-06-27T11:20:35.083Z,31.99
2019-06-27T11:23:05.869Z,31.93
2019-06-27T11:25:35.032Z,31.92
2019-06-27T11:28:05.893Z,31.72
2019-06-27T11:30:39.892Z,31.98
2019-06-27T11:33:31.339Z,32.16
2019-06-27T11:35:47.923Z,32.56
2019-06-27T11:38:17.191Z,32.60
2019-06-27T11:40:48.731Z,32.97
2019-06-27T11:43:24.135Z,32.65
2019-06-27T11:45:53.347Z,32.62
2019-06-27T11:48:23.400Z,32.71
2019-06-27T11:50:54.383Z,32.87
2019-06-27T11:53:23.802Z,33.10
2019-06-27T11:55:58.444Z,32.91
2019-06-27T11:58:30.086Z,32.95
2019-06-27T12:01:00.236Z,32.73
2019-06-27T12:03:29.915Z,33.55
2019-06-27T12:05:59.207Z,33.74
2019-06-27T12:08:29.421Z,33.41
2019-06-27T12:10:58.648Z,33.33
2019-06-27T12:13:32.863Z,33.42
2019-06-27T12:16:06.999Z,33.40
2019-06-27T12:18:42.976Z,33.89
2019-06-27T12:21:14.941Z,33.91
2019-06-27T12:23:50.282Z,34.19
2019-06-27T12:26:19.685Z,33.56
2019-06-27T12:28:49.370Z,33.68
2019-06-27T12:31:21.014Z,33.45
2019-06-27T12:34:05.744Z,33.49
2019-06-27T12:36:22.465Z,33.40
2019-06-27T12:38:54.714Z,33.77
2019-06-27T12:41:25.890Z,33.65
2019-06-27T12:43:59.790Z,34.01
2019-06-27T12:46:30.033Z,34.03
2019-06-27T12:48:59.698Z,33.37
2019-06-27T12:51:36.260Z,33.33
2019-06-27T12:54:08.526Z,33.32
2019-06-27T12:56:41.164Z,33.35
2019-06-27T12:59:12.145Z,33.69
2019-06-27T13:01:41.354Z,33.24
2019-06-27T13:04:22.977Z,33.77
2019-06-27T13:06:54.433Z,34.22
2019-06-27T13:09:24.551Z,33.98
2019-06-27T13:11:55.704Z,33.91
2019-06-27T13:14:24.822Z,34.52
2019-06-27T13:16:58.157Z,34.03
2019-06-27T13:19:30.956Z,34.22
2019-06-27T13:22:01.681Z,34.24
2019-06-27T13:24:31.990Z,33.72
2019-06-27T13:27:04.106Z,33.89
2019-06-27T13:29:33.811Z,33.73
2019-06-27T13:32:03.038Z,34.18
2019-06-27T13:34:40.249Z,34.38
2019-06-27T13:37:03.164Z,33.68
2019-06-27T13:39:33.279Z,33.85
2019-06-27T13:42:03.554Z,34.22
2019-06-27T13:44:36.996Z,34.32
2019-06-27T13:47:09.020Z,33.73
2019-06-27T13:49:38.519Z,33.86
2019-06-27T13:52:07.988Z,33.99
2019-06-27T13:54:39.278Z,34.09
2019-06-27T13:57:09.068Z,34.02
2019-06-27T13:59:40.737Z,33.76
2019-06-27T14:02:11.020Z,33.40
2019-06-27T14:04:52.939Z,33.73
2019-06-27T14:07:10.921Z,34.11
2019-06-27T14:09:51.422Z,33.89
2019-06-27T14:12:11.718Z,33.84
2019-06-27T14:14:58.779Z,32.31
2019-06-27T14:17:15.667Z,33.69
2019-06-27T14:19:50.572Z,33.86
2019-06-27T14:22:32.942Z,33.97
2019-06-27T14:24:53.576Z,34.00
2019-06-27T14:27:26.537Z,34.28
2019-06-27T14:29:56.759Z,34.33
2019-06-27T14:32:33.115Z,34.15
2019-06-27T14:35:14.625Z,33.91
2019-06-27T14:37:33.806Z,33.69
2019-06-27T14:40:07.362Z,34.09
2019-06-27T14:42:37.073Z,33.53
2019-06-27T14:45:08.877Z,33.11
2019-06-27T14:47:39.838Z,33.52
2019-06-27T14:50:10.919Z,33.82
2019-06-27T14:52:40.039Z,34.16
2019-06-27T14:55:15.894Z,34.24
2019-06-27T14:57:45.358Z,33.99
2019-06-27T15:00:21.886Z,33.68
2019-06-27T15:02:53.442Z,33.70
2019-06-27T15:05:32.610Z,33.49
2019-06-27T15:07:55.864Z,33.93
2019-06-27T15:10:28.774Z,33.71
2019-06-27T15:13:03.820Z,33.93
2019-06-27T15:15:37.883Z,34.59
2019-06-27T15:18:07.768Z,34.28
2019-06-27T15:20:37.382Z,33.82
2019-06-27T15:23:11.102Z,33.70
2019-06-27T15:25:43.259Z,33.66
2019-06-27T15:28:12.876Z,33.58
2019-06-27T15:30:43.739Z,33.32
2019-06-27T15:33:17.303Z,33.69
2019-06-27T15:35:52.364Z,33.40
2019-06-27T15:38:24.581Z,33.96
2019-06-27T15:40:55.417Z,33.78
2019-06-27T15:43:27.150Z,33.83
2019-06-27T15:45:56.285Z,33.52
2019-06-27T15:48:25.755Z,33.25
2019-06-27T15:50:56.799Z,33.61
2019-06-27T15:53:25.901Z,33.43
2019-06-27T15:55:55.272Z,33.51
2019-06-27T15:58:28.324Z,33.91
2019-06-27T16:01:06.558Z,33.13
2019-06-27T16:03:35.789Z,32.93
2019-06-27T16:06:10.251Z,33.17
2019-06-27T16:08:36.782Z,33.43
2019-06-27T16:11:05.914Z,33.89
2019-06-27T16:13:35.220Z,33.95
2019-06-27T16:16:05.822Z,33.21
2019-06-27T16:18:48.982Z,33.27
2019-06-27T16:21:20.921Z,33.29
2019-06-27T16:23:52.942Z,33.37
2019-06-27T16:26:25.448Z,33.28
2019-06-27T16:28:55.194Z,32.93
2019-06-27T16:31:28.440Z,33.13
2019-06-27T16:33:57.545Z,32.93
2019-06-27T16:36:26.691Z,32.95
2019-06-27T16:38:55.823Z,32.74
2019-06-27T16:41:26.185Z,32.93
2019-06-27T16:44:03.724Z,32.95
2019-06-27T16:46:34.078Z,32.66
2019-06-27T16:49:04.928Z,33.17
2019-06-27T16:51:34.025Z,32.99
2019-06-27T16:54:04.927Z,32.78
2019-06-27T16:56:34.063Z,32.30
2019-06-27T16:59:05.052Z,32.26
2019-06-27T17:01:34.189Z,32.28
2019-06-27T17:04:05.623Z,32.56
2019-06-27T17:06:41.980Z,32.28
2019-06-27T17:09:09.217Z,32.14
2019-06-27T17:11:38.438Z,32.07
2019-06-27T17:14:07.526Z,31.99
2019-06-27T17:16:36.701Z,31.88
2019-06-27T17:19:08.664Z,31.58
2019-06-27T17:21:39.056Z,31.41
2019-06-27T17:24:13.419Z,31.48
2019-06-27T17:26:47.027Z,31.55
2019-06-27T17:29:18.566Z,31.73
2019-06-27T17:31:47.890Z,31.50
2019-06-27T17:34:16.997Z,31.49
2019-06-27T17:36:56.974Z,31.39
2019-06-27T17:39:18.009Z,31.20
2019-06-27T17:41:47.182Z,31.28
2019-06-27T17:44:19.985Z,30.97
2019-06-27T17:46:47.482Z,30.82
2019-06-27T17:49:23.049Z,30.96
2019-06-27T17:52:00.137Z,31.06
2019-06-27T17:54:38.156Z,30.99
2019-06-27T17:57:10.240Z,30.90
2019-06-27T17:59:39.465Z,30.74
2019-06-27T18:02:10.563Z,30.74
2019-06-27T18:04:39.672Z,30.63
2019-06-27T18:07:14.077Z,30.59
2019-06-27T18:09:42.671Z,30.48
2019-06-27T18:12:11.904Z,29.75
2019-06-27T18:14:42.819Z,29.85
2019-06-27T18:17:14.751Z,29.98
2019-06-27T18:19:48.770Z,29.74
2019-06-27T18:22:25.485Z,29.27
2019-06-27T18:25:03.810Z,29.11
2019-06-27T18:27:35.262Z,28.94
2019-06-27T18:30:04.381Z,28.97
2019-06-27T18:32:33.798Z,28.86
2019-06-27T18:35:03.686Z,28.62
2019-06-27T18:37:35.223Z,28.58
2019-06-27T18:40:08.897Z,28.66
2019-06-27T18:42:41.395Z,28.69
2019-06-27T18:45:17.560Z,28.67
2019-06-27T18:47:46.789Z,28.52
2019-06-27T18:50:16.784Z,28.53
2019-06-27T18:52:47.235Z,28.40
2019-06-27T18:55:20.825Z,28.28
2019-06-27T18:57:49.993Z,28.20
2019-06-27T19:00:21.846Z,27.97
2019-06-27T19:02:51.169Z,27.82
2019-06-27T19:05:21.762Z,27.80
2019-06-27T19:07:52.914Z,27.72
2019-06-27T19:10:31.253Z,27.73
2019-06-27T19:13:00.446Z,27.80
2019-06-27T19:15:30.947Z,27.59
2019-06-27T19:18:04.407Z,27.65
2019-06-27T19:20:42.331Z,27.70
2019-06-27T19:23:39.172Z,27.60
2019-06-27T19:26:08.441Z,27.46
2019-06-27T19:28:38.621Z,27.35
2019-06-27T19:31:10.787Z,27.35
2019-06-27T19:33:40.220Z,27.43
2019-06-27T19:36:12.201Z,27.49
2019-06-27T19:38:47.726Z,27.46
2019-06-27T19:41:16.856Z,27.39
2019-06-27T19:43:46.183Z,27.50
2019-06-27T19:46:15.283Z,27.52
2019-06-27T19:48:45.738Z,27.53
2019-06-27T19:51:16.717Z,27.44
2019-06-27T19:53:47.450Z,27.24
2019-06-27T19:56:17.446Z,27.09
2019-06-27T19:58:46.580Z,27.09
2019-06-27T20:01:15.744Z,26.97
2019-06-27T20:03:45.165Z,26.84
2019-06-27T20:06:17.205Z,26.76
2019-06-27T20:08:48.763Z,26.81
2019-06-27T20:11:17.902Z,26.71
2019-06-27T20:13:47.111Z,26.70
2019-06-27T20:16:16.458Z,26.61
2019-06-27T20:18:45.694Z,26.62
2019-06-27T20:21:16.690Z,26.70
2019-06-27T20:23:46.615Z,26.72
2019-06-27T20:26:18.680Z,26.66
2019-06-27T20:28:51.286Z,26.34
2019-06-27T20:31:20.950Z,26.34
2019-06-27T20:33:50.284Z,26.22
2019-06-27T20:36:20.411Z,26.11
2019-06-27T20:38:49.565Z,26.08
2019-06-27T20:41:18.990Z,26.23
2019-06-27T20:43:53.093Z,26.12
2019-06-27T20:46:22.568Z,24.45
2019-06-27T20:48:54.118Z,26.18
2019-06-27T20:51:30.348Z,26.03
2019-06-27T20:54:03.528Z,26.01
2019-06-27T20:56:32.947Z,26.01
2019-06-27T20:59:02.067Z,26.11
2019-06-27T21:01:31.899Z,26.23
2019-06-27T21:04:01.133Z,26.09
2019-06-27T21:06:33.150Z,26.07
2019-06-27T21:09:02.257Z,25.97
2019-06-27T21:11:31.354Z,25.88
2019-06-27T21:14:00.469Z,25.83
2019-06-27T21:16:29.690Z,25.89
2019-06-27T21:19:01.654Z,25.97
2019-06-27T21:21:30.955Z,26.00
2019-06-27T21:24:01.807Z,26.10
2019-06-27T21:26:32.556Z,25.92
2019-06-27T21:29:01.666Z,25.82
2019-06-27T21:31:30.768Z,25.72
2019-06-27T21:34:02.694Z,25.68
2019-06-27T21:36:31.876Z,25.65
2019-06-27T21:39:07.570Z,25.55
2019-06-27T21:41:35.465Z,25.46
2019-06-27T21:44:06.900Z,25.27
2019-06-27T21:46:37.160Z,25.29
2019-06-27T21:49:06.288Z,25.23
2019-06-27T21:51:35.710Z,25.03
2019-06-27T21:54:04.822Z,24.93
2019-06-27T21:56:36.427Z,25.03
2019-06-27T21:59:05.944Z,25.11
2019-06-27T22:01:35.728Z,25.07
2019-06-27T22:04:05.059Z,25.20
2019-06-27T22:06:36.654Z,25.32
2019-06-27T22:09:24.142Z,25.51
2019-06-27T22:11:44.065Z,25.54
2019-06-27T22:14:14.084Z,25.56
2019-06-27T22:16:45.067Z,25.46
2019-06-27T22:19:16.105Z,25.16
2019-06-27T22:21:46.063Z,24.36
2019-06-27T22:24:16.686Z,25.20
2019-06-27T22:26:46.162Z,25.25
2019-06-27T22:29:18.633Z,25.21
2019-06-27T22:31:51.879Z,25.17
2019-06-27T22:34:25.268Z,25.06
2019-06-27T22:37:03.480Z,24.96
2019-06-27T22:39:53.383Z,24.96
2019-06-27T22:42:41.466Z,24.96
2019-06-27T22:45:28.451Z,24.54
2019-06-27T22:48:12.603Z,24.83
2019-06-27T22:51:12.772Z,16.29
2019-06-27T22:53:56.092Z,24.69
2019-06-27T22:56:28.273Z,24.78
2019-06-27T22:58:59.231Z,24.61
2019-06-27T23:01:29.086Z,24.61
2019-06-27T23:03:59.928Z,24.68
2019-06-27T23:06:30.791Z,24.62
2019-06-27T23:09:04.077Z,24.62
2019-06-27T23:11:36.471Z,24.56
2019-06-27T23:14:10.965Z,24.59
2019-06-27T23:16:44.680Z,24.53
2019-06-27T23:19:14.904Z,24.33
2019-06-27T23:21:46.527Z,24.37
2019-06-27T23:24:16.957Z,24.36
2019-06-27T23:26:46.103Z,24.49
2019-06-27T23:29:18.717Z,24.42
2019-06-27T23:31:51.769Z,24.34
2019-06-27T23:34:20.962Z,24.39
2019-06-27T23:36:51.138Z,24.46
2019-06-27T23:39:21.079Z,24.32
2019-06-27T23:41:51.359Z,24.20
2019-06-27T23:44:20.535Z,24.17
2019-06-27T23:46:53.370Z,24.14
2019-06-27T23:49:26.157Z,24.22
2019-06-27T23:51:58.313Z,24.20
2019-06-27T23:54:28.721Z,24.21
2019-06-27T23:56:57.812Z,24.06
2019-06-27T23:59:28.324Z,23.96
